Bountiful, Colorado
Current Conditions -  °F | °C
As of 4:52 AM on Friday 24 Oct 2014 (Local Time) from KALS Reporting Station
Clear Clear  
Wind Chill: 26°   Ceiling: Unl
Heat Index: 26°   Visibility: 10mi
Dew Point: 23°   Wind: 3mph
Humidity: 88%   Direction: 90°E
Pressure: 30.39"   Gusts: NA
Location:  37.3121°N, 106.036°W
Report Text: KALS 241052Z AUTO 09003KT 10SM CLR M03/M05 A3039 RMK AO2 SLP253 T10331050
Loading
Personal Weather Stations






























Interactive Weather Map
Tropical Storm Tracking
New forecast layout! Learn more

10-Day Weather Forecast

Advertisements
Track Severe Weather on mobile